Time;durP1;ratioP1;P1;durP2;ratioP2;P2;SDS_P1;SDS_P2;PMS_P1;PMS_P2;Temp;Humidity;BMP_temperature;BMP_pressure;BME280_temperature;BME280_humidity;BME280_pressure;Samples;Min_cycle;Max_cycle;Signal;HPM_P1;HPM_P2
2021/11/30 00:01:48;;;;;;;10.90;5.40;;;8.10;99.90;;;8.27;73.49;100853.94;5052408;28;20045;-75
2021/11/30 00:04:19;;;;;;;10.52;5.32;;;8.10;99.90;;;8.26;74.44;100848.66;5052326;28;20041;-75
2021/11/30 00:06:48;;;;;;;9.95;4.90;;;8.10;99.90;;;8.15;75.43;100846.81;5052911;28;20049;-75
2021/11/30 00:10:43;;;;;;;13.45;5.65;;;8.00;99.90;;;7.96;76.44;100801.94;5052346;28;20470;-74
2021/11/30 00:12:14;;;;;;;13.50;5.55;;;8.00;99.90;;;8.09;76.86;100802.00;5055335;28;20417;-74
2021/11/30 00:14:46;;;;;;;13.38;5.30;;;8.00;99.90;;;8.23;77.95;100832.81;5056387;28;20037;-73
2021/11/30 00:17:15;;;;;;;12.40;5.90;;;8.00;99.90;;;8.22;78.71;100808.22;5055279;28;20406;-73
2021/11/30 00:19:46;;;;;;;13.05;6.72;;;8.10;99.90;;;8.30;79.57;100806.53;5056175;28;20041;-73
2021/11/30 00:22:18;;;;;;;11.43;6.10;;;8.10;99.90;;;8.27;80.68;100819.69;5056179;28;20033;-74
2021/11/30 00:24:48;;;;;;;14.45;6.72;;;8.10;99.90;;;8.31;81.29;100804.75;5056070;28;20060;-72
2021/11/30 00:27:16;;;;;;;11.13;6.27;;;8.10;99.90;;;8.25;82.35;100807.38;5056387;28;20467;-75
2021/11/30 00:29:45;;;;;;;13.73;6.18;;;8.10;99.90;;;8.27;82.66;100803.88;5054990;28;20053;-75
2021/11/30 00:32:14;;;;;;;14.00;5.82;;;8.10;99.90;;;8.30;83.31;100793.34;5055937;28;20162;-74
2021/11/30 00:34:43;;;;;;;14.68;7.13;;;8.10;99.90;;;8.26;84.26;100788.94;5056194;28;20073;-74
2021/11/30 00:37:12;;;;;;;18.08;6.78;;;8.10;99.90;;;8.22;84.81;100779.25;5055915;28;20056;-73
2021/11/30 00:39:40;;;;;;;15.27;6.43;;;8.10;99.90;;;8.34;85.14;100778.44;5055798;28;20069;-73
2021/11/30 00:42:09;;;;;;;13.55;7.10;;;8.10;99.90;;;8.29;85.79;100759.06;5055726;28;20410;-73
2021/11/30 00:44:39;;;;;;;14.50;7.47;;;8.10;99.90;;;8.32;86.94;100767.91;5056227;28;20048;-73
2021/11/30 00:47:16;;;;;;;16.33;7.63;;;8.10;99.90;;;8.34;87.29;100760.00;5055710;28;20052;-73
2021/11/30 00:49:47;;;;;;;16.55;7.43;;;8.10;99.90;;;8.33;88.35;100759.09;5055684;28;20091;-73
2021/11/30 00:52:16;;;;;;;21.35;7.03;;;8.10;99.90;;;8.29;88.96;100761.72;5055630;28;20072;-74
2021/11/30 00:54:44;;;;;;;17.30;8.20;;;8.10;99.90;;;8.22;90.06;100745.00;5055411;28;20136;-74
2021/11/30 00:57:14;;;;;;;16.80;7.75;;;8.10;99.90;;;8.21;90.50;100752.00;5055481;28;20445;-74
2021/11/30 00:59:42;;;;;;;21.90;8.68;;;8.10;99.90;;;8.14;90.84;100716.00;5054457;28;20037;-74
2021/11/30 01:02:11;;;;;;;17.02;7.40;;;8.10;99.90;;;8.27;91.80;100739.75;5055333;28;20383;-75
2021/11/30 01:04:40;;;;;;;16.30;8.50;;;8.10;99.90;;;8.03;91.80;100691.34;5055350;28;20044;-74
2021/11/30 01:07:11;;;;;;;20.17;8.77;;;8.10;99.90;;;8.23;92.69;100718.63;5055215;28;20073;-75
2021/11/30 01:09:41;;;;;;;14.48;7.80;;;8.10;99.90;;;8.27;92.64;100724.81;5055487;28;20481;-75
2021/11/30 01:12:10;;;;;;;19.30;7.97;;;8.10;99.90;;;8.29;92.94;100728.34;5055447;28;20056;-75
2021/11/30 01:14:39;;;;;;;16.65;7.85;;;8.10;99.90;;;8.33;93.42;100727.47;5055023;28;20437;-76
2021/11/30 01:17:08;;;;;;;18.17;7.80;;;8.10;99.90;;;8.28;93.32;100726.59;5054051;28;20437;-76
2021/11/30 01:19:36;;;;;;;19.38;7.95;;;8.10;99.90;;;8.35;93.67;100716.94;5070734;28;20102;-76
2021/11/30 01:22:06;;;;;;;17.10;7.97;;;8.10;99.90;;;8.34;93.72;100709.91;5054240;28;20041;-76
2021/11/30 01:24:35;;;;;;;14.90;8.45;;;8.20;99.90;;;8.38;94.23;100707.28;5053299;28;20106;-76
2021/11/30 01:27:04;;;;;;;13.95;7.75;;;8.20;99.90;;;8.42;94.72;100714.31;5055404;28;20106;-76
2021/11/30 01:29:33;;;;;;;14.13;7.85;;;8.20;99.90;;;8.43;95.31;100702.03;5055136;28;20131;-76
2021/11/30 01:32:01;;;;;;;13.20;7.60;;;8.20;99.90;;;8.45;95.85;100705.53;5054885;28;20049;-75
2021/11/30 01:34:30;;;;;;;11.55;8.00;;;8.30;99.90;;;8.34;96.23;100681.81;5054940;28;20128;-76
2021/11/30 01:36:58;;;;;;;13.85;8.20;;;8.30;99.90;;;8.32;96.55;100685.31;5053704;28;20546;-75
2021/11/30 01:39:27;;;;;;;13.68;7.40;;;8.30;99.90;;;8.53;97.00;100702.03;5055010;28;20506;-76
2021/11/30 01:41:57;;;;;;;13.23;7.82;;;8.40;99.90;;;8.61;97.53;100705.56;5054645;28;20049;-75
2021/11/30 01:44:37;;;;;;;13.80;6.93;;;8.40;99.90;;;8.60;97.39;100693.25;5054686;28;20041;-75
2021/11/30 01:47:10;;;;;;;10.35;6.72;;;8.50;99.90;;;8.75;97.99;100705.59;5053698;28;20047;-75
2021/11/30 01:49:39;;;;;;;12.02;6.63;;;8.50;99.90;;;8.84;98.09;100695.03;5054828;28;20076;-75
2021/11/30 01:52:11;;;;;;;16.30;8.07;;;8.60;99.90;;;8.94;98.07;100696.78;5054753;28;20148;-75
2021/11/30 01:54:41;;;;;;;12.15;7.03;;;8.70;99.90;;;9.14;98.25;100699.41;5054389;28;20040;-75
2021/11/30 01:57:14;;;;;;;11.52;7.35;;;8.90;99.90;;;9.16;98.29;100687.06;5054639;28;20077;-75
2021/11/30 01:59:44;;;;;;;13.90;7.70;;;9.00;99.90;;;9.21;97.95;100686.19;5054891;28;20045;-76
2021/11/30 02:02:13;;;;;;;15.45;7.10;;;9.00;99.90;;;9.22;98.26;100676.50;5054636;28;20056;-76
2021/11/30 02:04:42;;;;;;;12.35;6.40;;;9.10;99.90;;;9.32;98.32;100665.03;5054428;28;20047;-76
2021/11/30 02:07:11;;;;;;;11.35;6.35;;;9.10;99.90;;;9.26;98.21;100662.41;5053096;28;20552;-76
2021/11/30 02:09:40;;;;;;;12.52;6.32;;;9.10;99.90;;;9.31;98.31;100677.34;5054327;28;20116;-75
2021/11/30 02:12:12;;;;;;;11.50;6.13;;;9.10;99.90;;;9.32;98.89;100672.97;5054353;28;20041;-75
2021/11/30 02:14:45;;;;;;;12.82;6.32;;;9.20;99.90;;;9.37;98.89;100681.75;5054340;28;20064;-75
2021/11/30 02:17:14;;;;;;;9.38;5.85;;;9.20;99.90;;;9.33;98.91;100666.81;5054315;28;20045;-75
2021/11/30 02:19:49;;;;;;;10.57;5.63;;;9.20;99.90;;;9.00;98.69;100602.69;5054115;28;20147;-75
2021/11/30 02:22:18;;;;;;;9.15;6.22;;;9.20;99.90;;;9.32;99.21;100646.56;5053870;28;20071;-76
2021/11/30 02:24:46;;;;;;;13.13;6.57;;;9.20;99.90;;;9.41;99.40;100650.06;5053674;28;20128;-76
2021/11/30 02:27:15;;;;;;;10.25;5.93;;;9.20;99.90;;;9.34;99.87;100643.06;5053563;28;20096;-76
2021/11/30 02:29:43;;;;;;;9.85;6.32;;;9.20;99.90;;;9.42;99.86;100649.19;5053700;28;20044;-75
2021/11/30 02:32:12;;;;;;;13.05;5.95;;;9.30;99.90;;;9.36;99.78;100646.56;5053855;28;20056;-76
2021/11/30 02:34:40;;;;;;;12.70;6.40;;;9.30;99.90;;;8.39;99.67;100474.53;5053376;28;20045;-75
2021/11/30 02:37:12;;;;;;;9.88;5.45;;;9.20;99.90;;;9.39;100.00;100643.03;5053559;28;20099;-77
2021/11/30 02:39:43;;;;;;;10.70;5.32;;;9.30;99.90;;;9.40;100.00;100627.19;5053499;28;20491;-76
2021/11/30 02:42:12;;;;;;;17.73;5.75;;;9.30;99.90;;;9.51;100.00;100632.41;5053560;28;20045;-76
2021/11/30 02:44:41;;;;;;;13.48;6.00;;;9.30;99.90;;;9.40;100.00;100616.63;5053465;28;20147;-77
2021/11/30 02:47:11;;;;;;;11.88;5.68;;;9.40;99.90;;;9.58;99.75;100650.88;5053362;28;20094;-77
2021/11/30 02:49:43;;;;;;;11.77;6.00;;;9.40;99.90;;;9.60;99.56;100638.53;5053605;28;20045;-77
2021/11/30 02:52:18;;;;;;;13.25;6.07;;;9.50;99.90;;;9.47;99.72;100631.56;5069033;28;20107;-76
2021/11/30 02:54:53;;;;;;;12.85;5.95;;;9.40;99.90;;;9.52;99.65;100632.44;5053538;28;20076;-76
2021/11/30 02:57:24;;;;;;;13.02;5.72;;;9.40;99.90;;;9.51;99.66;100620.09;5053286;28;20041;-78
2021/11/30 02:59:54;;;;;;;;;;;9.40;99.90;;;9.41;99.87;100610.47;5053629;28;20115;-76
2021/11/30 03:02:25;;;;;;;11.60;5.70;;;9.40;99.90;;;9.58;99.78;100619.19;5053659;28;19963;-76
2021/11/30 03:04:57;;;;;;;12.55;6.13;;;9.50;99.90;;;9.53;100.00;100620.09;5053446;28;20552;-77
2021/11/30 03:07:30;;;;;;;12.20;6.40;;;9.40;99.90;;;9.36;100.00;100614.91;5053361;28;20044;-78
2021/11/30 03:09:59;;;;;;;15.15;6.03;;;9.30;99.90;;;9.44;100.00;100604.31;5053090;28;20056;-76
2021/11/30 03:12:27;;;;;;;15.80;6.25;;;9.30;99.90;;;9.49;100.00;100598.13;5052915;28;20068;-76
2021/11/30 03:14:55;;;;;;;16.48;5.97;;;9.40;99.90;;;9.50;100.00;100601.63;5053303;28;20171;-77
2021/11/30 03:17:24;;;;;;;12.90;6.30;;;9.40;99.90;;;9.54;100.00;100598.97;5053392;28;20068;-76
2021/11/30 03:19:52;;;;;;;15.90;7.05;;;9.40;99.90;;;8.93;100.00;100491.94;5052823;28;20093;-79
2021/11/30 03:22:21;;;;;;;15.98;6.78;;;9.40;99.90;;;9.53;100.00;100589.28;5053048;28;20526;-78
2021/11/30 03:24:50;;;;;;;13.27;6.03;;;9.40;99.90;;;9.44;100.00;100581.44;5052982;28;20098;-77
2021/11/30 03:27:19;;;;;;;12.27;6.53;;;9.40;99.90;;;9.52;100.00;100584.91;5052844;28;20053;-77
2021/11/30 03:29:47;;;;;;;13.52;6.80;;;9.40;99.90;;;9.56;100.00;100591.91;5052798;28;20049;-77
2021/11/30 03:33:59;;;;;;;14.40;6.85;;;9.40;99.90;;;9.54;100.00;100582.25;5052673;28;20510;-78
2021/11/30 03:35:13;;;;;;;19.42;6.93;;;9.40;99.90;;;9.60;100.00;100576.97;5052638;28;20040;-79
2021/11/30 03:37:41;;;;;;;15.73;6.80;;;9.40;99.90;;;9.66;100.00;100575.13;5052591;28;20045;-78
2021/11/30 03:40:12;;;;;;;11.15;6.22;;;9.50;99.90;;;9.56;100.00;100576.06;5052904;28;20098;-78
2021/11/30 03:42:40;;;;;;;10.35;5.95;;;9.50;99.90;;;9.66;100.00;100577.78;5052626;28;20179;-79
2021/11/30 03:45:10;;;;;;;15.52;6.25;;;9.50;99.90;;;9.57;100.00;100569.91;5052124;28;20068;-78
2021/11/30 03:47:38;;;;;;;14.32;6.20;;;9.50;99.90;;;9.64;100.00;100576.06;5052415;28;20045;-78
2021/11/30 03:50:08;;;;;;;16.27;6.90;;;9.50;99.90;;;9.74;100.00;100557.50;5053038;28;20069;-78
2021/11/30 03:52:38;;;;;;;18.63;7.23;;;9.60;99.90;;;9.71;100.00;100560.16;5053080;28;20126;-79
2021/11/30 03:55:08;;;;;;;14.32;6.38;;;9.60;99.90;;;9.67;100.00;100570.75;5052731;28;20131;-78
2021/11/30 03:57:59;;;;;;;18.65;7.22;;;9.60;99.90;;;9.57;100.00;100543.50;5052547;28;20049;-79
2021/11/30 04:00:28;;;;;;;17.15;7.75;;;9.60;99.90;;;9.65;100.00;100572.50;5052687;28;20053;-78
2021/11/30 04:02:57;;;;;;;16.23;6.93;;;9.60;99.90;;;9.69;100.00;100574.25;5052652;28;20044;-79
2021/11/30 04:05:25;;;;;;;16.85;6.65;;;9.60;99.90;;;9.59;100.00;100565.50;5052302;28;20055;-79
2021/11/30 04:07:54;;;;;;;14.90;7.43;;;9.50;99.90;;;9.61;100.00;100570.78;5052346;28;20035;-78
2021/11/30 04:10:22;;;;;;;16.92;7.95;;;9.50;99.90;;;9.66;100.00;100579.53;5052526;28;20049;-78
2021/11/30 04:12:51;;;;;;;12.68;8.02;;;9.50;99.90;;;9.65;100.00;100546.09;5052333;28;20119;-79
2021/11/30 04:15:21;;;;;;;14.30;8.75;;;9.50;99.90;;;9.67;100.00;100574.28;5052575;28;20041;-79
2021/11/30 04:17:50;;;;;;;21.10;8.73;;;9.50;99.90;;;9.70;100.00;100566.31;5052537;28;20115;-79
2021/11/30 04:20:19;;;;;;;19.77;9.63;;;9.50;99.90;;;9.68;100.00;100573.38;5052212;28;20395;-79
2021/11/30 04:22:48;;;;;;;27.77;10.18;;;9.50;99.90;;;9.79;100.00;100568.88;5052213;28;20230;-79
2021/11/30 04:25:17;;;;;;;22.95;9.55;;;9.60;99.90;;;9.70;100.00;100554.88;5052206;28;20075;-78
2021/11/30 04:27:49;;;;;;;26.70;10.57;;;9.60;99.90;;;9.64;100.00;100526.75;5052436;28;20045;-78
2021/11/30 04:30:17;;;;;;;28.20;11.30;;;9.60;99.90;;;9.81;100.00;100555.69;5052506;28;20049;-79
2021/11/30 04:32:47;;;;;;;25.08;10.45;;;9.60;99.90;;;9.77;100.00;100552.22;5052167;28;20087;-78
2021/11/30 04:35:16;;;;;;;24.40;9.70;;;9.60;99.90;;;9.64;100.00;100528.53;5052586;28;20098;-78
2021/11/30 04:37:44;;;;;;;27.63;9.93;;;9.70;99.90;;;9.72;100.00;100543.41;5052098;28;20041;-78
2021/11/30 04:40:15;;;;;;;31.35;9.77;;;9.60;99.90;;;9.77;100.00;100551.31;5052211;28;20049;-78
2021/11/30 04:42:46;;;;;;;26.02;9.65;;;9.60;99.90;;;9.86;100.00;100552.13;5052349;28;20048;-77
2021/11/30 04:45:22;;;;;;;22.88;9.55;;;9.70;99.90;;;9.86;100.00;100536.28;5052312;28;20072;-77
2021/11/30 04:47:55;;;;;;;17.52;8.45;;;9.70;99.90;;;9.85;100.00;100525.75;5051996;28;20037;-78
2021/11/30 04:50:27;;;;;;;21.30;8.93;;;9.70;99.90;;;9.84;100.00;100523.97;5052186;28;20053;-77
2021/11/30 04:52:57;;;;;;;21.35;8.55;;;9.70;99.90;;;9.78;100.00;100519.63;5051992;28;20499;-78
2021/11/30 04:55:28;;;;;;;23.60;9.30;;;9.70;99.90;;;9.82;100.00;100545.13;5051878;28;20045;-78
2021/11/30 04:58:00;;;;;;;26.92;10.43;;;9.70;99.90;;;9.77;100.00;100531.06;5052925;28;20161;-77
2021/11/30 05:00:30;;;;;;;25.85;10.35;;;9.70;99.90;;;9.80;100.00;100530.16;5055455;28;20503;-77
2021/11/30 05:03:00;;;;;;;27.17;10.32;;;9.70;99.90;;;9.84;100.00;100526.63;5055482;28;20037;-77
2021/11/30 05:05:29;;;;;;;23.27;9.80;;;9.70;99.90;;;9.88;100.00;100523.94;5055406;28;20049;-82
2021/11/30 05:07:58;;;;;;;26.95;10.50;;;9.70;99.90;;;9.85;100.00;100513.38;5055612;28;20055;-81
2021/11/30 05:10:27;;;;;;;25.13;9.88;;;9.70;99.90;;;9.93;100.00;100516.84;5055284;28;20049;-79
2021/11/30 05:12:55;;;;;;;23.98;9.95;;;9.80;99.90;;;9.96;100.00;100515.97;5055186;28;20372;-80
2021/11/30 05:15:24;;;;;;;28.58;9.93;;;9.80;99.90;;;10.03;100.00;100531.75;5055633;28;20114;-80
2021/11/30 05:17:52;;;;;;;23.05;8.73;;;9.90;99.90;;;9.26;100.00;100387.97;5055115;28;20132;-77
2021/11/30 05:20:22;;;;;;;30.30;8.82;;;9.80;99.90;;;9.96;100.00;100523.88;5055010;28;20099;-80
2021/11/30 05:22:52;;;;;;;23.40;7.60;;;9.80;99.90;;;10.01;100.00;100519.44;5055081;28;20087;-78
2021/11/30 05:25:23;;;;;;;25.83;9.20;;;9.90;99.90;;;10.03;100.00;100521.19;5055504;28;20048;-76
2021/11/30 05:27:52;;;;;;;23.63;9.13;;;9.90;99.90;;;9.94;100.00;100513.34;5055222;28;20057;-76
2021/11/30 05:30:21;;;;;;;23.58;8.32;;;9.90;99.90;;;10.06;100.00;100519.41;5054897;28;20550;-76
2021/11/30 05:32:51;;;;;;;25.65;9.20;;;9.90;99.90;;;9.99;100.00;100514.16;5054863;28;20044;-76
2021/11/30 05:35:19;;;;;;;26.48;9.82;;;9.90;99.90;;;10.00;100.00;100539.72;5055259;28;20154;-76
2021/11/30 05:37:49;;;;;;;28.13;9.95;;;9.90;99.90;;;10.03;100.00;100521.19;5053753;28;20490;-76
2021/11/30 05:40:18;;;;;;;21.47;9.50;;;9.90;99.90;;;10.04;100.00;100535.28;5054692;28;20045;-76
2021/11/30 05:42:46;;;;;;;34.70;10.63;;;9.90;99.90;;;10.09;100.00;100537.88;5054652;28;20291;-75
2021/11/30 05:45:15;;;;;;;34.13;11.65;;;9.90;99.90;;;9.99;100.00;100516.81;5054597;28;20041;-76
2021/11/30 05:47:43;;;;;;;30.40;11.68;;;9.90;99.90;;;10.11;100.00;100522.91;5054837;28;20124;-75
2021/11/30 05:50:11;;;;;;;35.47;12.05;;;9.90;99.90;;;10.11;100.00;100538.75;5054760;28;20096;-76
2021/11/30 05:52:40;;;;;;;34.72;11.48;;;9.90;99.90;;;10.17;100.00;100536.06;5054402;28;20512;-76
2021/11/30 05:55:10;;;;;;;33.92;11.25;;;10.00;99.90;;;10.02;100.00;100508.88;5053310;28;20572;-76
2021/11/30 05:57:40;;;;;;;;;;;10.00;99.90;;;10.17;100.00;100534.31;5054874;28;20098;-76
2021/11/30 06:00:11;;;;;;;39.78;12.23;;;10.00;99.90;;;10.19;100.00;100539.59;5054597;28;20018;-76
2021/11/30 06:02:54;;;;;;;36.28;12.00;;;10.10;99.90;;;10.17;100.00;100533.44;5054279;28;20097;-76
2021/11/30 06:05:24;;;;;;;27.13;10.93;;;10.00;99.90;;;10.23;100.00;100536.03;5054161;28;20040;-75
2021/11/30 06:07:53;;;;;;;31.85;11.40;;;10.10;99.90;;;10.22;100.00;100537.78;5053068;28;20517;-76
2021/11/30 06:10:24;;;;;;;33.42;10.68;;;10.10;99.90;;;10.24;100.00;100537.81;5086175;28;20376;-76
2021/11/30 06:12:53;;;;;;;33.85;11.02;;;10.10;99.90;;;10.23;100.00;100539.56;5054115;28;20137;-76
2021/11/30 06:15:22;;;;;;;29.92;10.35;;;10.10;99.90;;;10.23;100.00;100533.38;5054306;28;20465;-75
2021/11/30 06:17:50;;;;;;;35.75;11.18;;;10.10;99.90;;;10.30;100.00;100532.47;5053958;28;20104;-76
2021/11/30 06:20:24;;;;;;;30.27;9.93;;;10.20;99.90;;;10.33;100.00;100525.38;5054254;28;20037;-75
2021/11/30 06:22:53;;;;;;;25.35;9.32;;;10.20;99.90;;;10.37;100.00;100520.94;5053841;28;20128;-75
2021/11/30 06:25:23;;;;;;;39.80;10.68;;;10.20;99.90;;;10.33;100.00;100527.13;5052716;28;20045;-75
2021/11/30 06:27:51;;;;;;;25.50;9.30;;;10.20;99.90;;;10.44;100.00;100531.44;5053626;28;20115;-75
2021/11/30 06:30:20;;;;;;;28.80;9.15;;;10.30;99.90;;;10.49;100.00;100515.53;5054138;28;20315;-75
2021/11/30 06:32:48;;;;;;;32.83;10.40;;;10.30;99.90;;;10.18;100.00;100453.28;5053866;28;20467;-75
2021/11/30 06:35:17;;;;;;;35.67;10.80;;;10.30;99.90;;;10.50;100.00;100535.78;5053365;28;20135;-75
2021/11/30 06:37:45;;;;;;;26.85;9.10;;;10.30;99.90;;;10.55;100.00;100534.00;5053662;28;20044;-76
2021/11/30 06:40:14;;;;;;;30.65;9.48;;;10.40;99.90;;;10.57;100.00;100548.03;5053489;28;20120;-75
2021/11/30 06:42:44;;;;;;;30.65;9.82;;;10.40;99.90;;;10.69;100.00;100542.63;5053497;28;20098;-74
2021/11/30 06:45:13;;;;;;;;;;;10.50;99.90;;;10.64;100.00;100541.81;5054238;28;20495;-75
2021/11/30 06:47:43;;;;;;;32.30;9.52;;;10.50;99.90;;;10.64;100.00;100536.53;5053311;28;19921;-74
2021/11/30 06:50:12;;;;;;;33.33;10.05;;;10.50;99.90;;;10.56;100.00;100512.81;5053329;28;20037;-74
2021/11/30 06:52:41;;;;;;;29.42;9.00;;;10.50;99.90;;;10.66;100.00;100532.09;5053181;28;20518;-75
2021/11/30 06:55:10;;;;;;;25.27;8.15;;;10.50;99.90;;;10.74;100.00;100546.13;5053512;28;20045;-75
2021/11/30 06:57:39;;;;;;;34.80;8.70;;;10.60;99.90;;;10.73;100.00;100553.19;5053127;28;20085;-76
2021/11/30 07:00:12;;;;;;;34.55;8.45;;;10.60;99.90;;;10.78;100.00;100561.09;5053057;28;20051;-75
2021/11/30 07:02:42;;;;;;;30.63;8.35;;;10.60;99.90;;;10.82;100.00;100554.84;5068595;28;20122;-75
2021/11/30 07:05:17;;;;;;;28.85;7.90;;;10.70;99.90;;;10.73;100.00;100539.06;5053204;28;20084;-79
2021/11/30 07:07:53;;;;;;;33.00;7.82;;;10.60;99.90;;;10.73;100.00;100555.84;5053369;28;20111;-75
2021/11/30 07:10:42;;;;;;;30.50;8.07;;;10.60;99.90;;;10.82;100.00;100546.91;5053017;28;20495;-76
2021/11/30 07:13:17;;;;;;;28.20;7.43;;;10.60;99.90;;;10.82;100.00;100544.25;5053267;28;20491;-73
2021/11/30 07:15:51;;;;;;;33.75;8.45;;;10.70;99.90;;;10.69;100.00;100537.34;5052956;28;20103;-75
2021/11/30 07:18:20;;;;;;;22.65;7.68;;;10.60;99.90;;;10.75;100.00;100553.16;5051809;28;20076;-73
2021/11/30 07:20:49;;;;;;;20.45;7.40;;;10.60;99.90;;;10.76;100.00;100539.91;5052397;28;20049;-75
2021/11/30 07:23:17;;;;;;;25.45;8.45;;;10.60;99.90;;;10.56;100.00;100515.47;5053336;28;20482;-74
2021/11/30 07:25:51;;;;;;;34.22;8.98;;;10.50;99.90;;;10.75;100.00;100554.03;5053048;28;20442;-77
2021/11/30 07:28:21;;;;;;;25.65;7.85;;;10.60;99.90;;;10.68;100.00;100556.78;5052542;28;20087;-77
2021/11/30 07:30:51;;;;;;;28.90;8.35;;;10.50;99.90;;;10.65;100.00;100547.09;5052988;28;20068;-77
2021/11/30 07:33:21;;;;;;;42.42;8.30;;;10.50;99.90;;;10.71;100.00;100551.44;5052956;28;20048;-76
2021/11/30 07:35:50;;;;;;;26.50;8.63;;;10.60;99.90;;;10.70;100.00;100560.28;5052662;28;20132;-76
2021/11/30 07:38:19;;;;;;;25.55;8.52;;;10.50;99.90;;;10.72;100.00;100574.38;5052704;28;20114;-74
2021/11/30 07:40:47;;;;;;;28.27;8.45;;;10.60;99.90;;;10.60;100.00;100537.44;5052792;28;20440;-73
2021/11/30 07:43:15;;;;;;;27.10;7.85;;;10.50;99.90;;;10.63;100.00;100563.84;5052608;28;20053;-74
2021/11/30 07:45:44;;;;;;;25.92;8.70;;;10.50;99.90;;;10.65;100.00;100557.66;5052699;28;20044;-76
2021/11/30 07:48:16;;;;;;;24.38;8.82;;;10.50;99.90;;;10.68;100.00;100572.66;5052375;28;20498;-74
2021/11/30 07:50:45;;;;;;;34.45;9.25;;;10.50;99.90;;;10.73;100.00;100554.94;5052452;28;20125;-72
2021/11/30 07:53:14;;;;;;;22.17;9.88;;;10.60;99.90;;;10.64;100.00;100560.34;5052756;28;20044;-75
2021/11/30 07:55:42;;;;;;;28.95;9.02;;;10.50;99.90;;;10.49;100.00;100545.47;5051048;28;20103;-75
2021/11/30 07:58:11;;;;;;;31.92;9.50;;;10.50;99.90;;;10.70;100.00;100569.06;5052512;28;20141;-68
2021/11/30 08:00:40;;;;;;;30.10;8.80;;;10.60;99.90;;;10.81;100.00;100566.34;5052709;28;20049;-75
2021/11/30 08:03:08;;;;;;;33.25;9.55;;;10.60;99.90;;;10.80;100.00;100573.38;5052587;28;20040;-75
2021/11/30 08:05:38;;;;;;;30.50;9.30;;;10.70;99.90;;;10.84;100.00;100572.47;5052300;28;20124;-75
2021/11/30 08:08:07;;;;;;;27.25;7.82;;;10.70;99.90;;;10.78;100.00;100558.44;5051068;28;20045;-75
2021/11/30 08:10:35;;;;;;;22.23;7.25;;;10.70;99.90;;;10.81;100.00;100563.69;5052348;28;20131;-74
2021/11/30 08:13:04;;;;;;;20.88;8.02;;;10.70;99.90;;;10.90;100.00;100574.16;5052257;28;20075;-75
2021/11/30 08:15:32;;;;;;;32.47;9.80;;;10.70;99.90;;;10.84;100.00;100568.94;5052822;28;20101;-75
2021/11/30 08:18:02;;;;;;;25.70;7.93;;;10.70;99.90;;;10.88;100.00;100565.38;5052422;28;20491;-74
2021/11/30 08:20:34;;;;;;;32.95;7.90;;;10.70;99.90;;;9.89;100.00;100401.53;5053850;28;20128;-74
2021/11/30 08:23:05;;;;;;;25.52;7.85;;;10.70;99.90;;;10.95;100.00;100585.59;5052751;28;20052;-74
2021/11/30 08:25:35;;;;;;;;;;;10.80;99.90;;;11.01;100.00;100572.31;5052550;28;20045;-79
2021/11/30 08:28:04;;;;;;;27.60;7.70;;;10.90;99.90;;;10.99;100.00;100589.06;5052481;28;20374;-76
2021/11/30 08:30:49;;;;;;;28.08;7.63;;;10.90;99.90;;;11.03;100.00;100577.56;5052502;28;20080;-74
2021/11/30 08:33:19;;;;;;;23.38;7.32;;;10.90;99.90;;;11.04;100.00;100582.84;5055539;28;20079;-83
2021/11/30 08:35:48;;;;;;;30.05;7.28;;;10.90;99.90;;;11.06;100.00;100575.75;5056235;28;20052;-81
2021/11/30 08:38:19;;;;;;;27.00;7.97;;;10.90;99.90;;;11.12;100.00;100575.69;5056075;28;20045;-76
2021/11/30 08:40:48;;;;;;;26.65;6.70;;;11.00;99.90;;;10.93;100.00;100542.41;5056077;28;20076;-77
2021/11/30 08:43:17;;;;;;;23.50;7.28;;;11.00;99.90;;;11.18;100.00;100569.44;5056013;28;20501;-84
2021/11/30 08:45:46;;;;;;;22.00;6.57;;;11.00;99.90;;;11.14;100.00;100583.59;5055743;28;20087;-75
2021/11/30 08:48:15;;;;;;;28.70;7.03;;;11.00;99.90;;;11.15;100.00;100575.66;5055763;28;20048;-74
2021/11/30 08:50:43;;;;;;;21.13;6.97;;;11.00;99.90;;;11.05;100.00;100576.66;5055940;28;20546;-74
2021/11/30 08:53:12;;;;;;;24.88;6.75;;;11.00;99.90;;;11.11;100.00;100578.38;5055460;28;20044;-74
2021/11/30 08:55:42;;;;;;;28.10;7.05;;;11.00;99.90;;;11.11;100.00;100583.66;5055582;28;20041;-78
2021/11/30 08:58:10;;;;;;;25.57;6.80;;;11.00;99.90;;;11.11;100.00;100584.50;5055761;28;20448;-77
2021/11/30 09:00:40;;;;;;;23.95;6.53;;;10.90;99.90;;;11.17;100.00;100597.69;5070756;28;20140;-77
2021/11/30 09:03:09;;;;;;;23.60;6.28;;;11.00;99.90;;;11.17;100.00;100589.75;5055381;28;20049;-77
2021/11/30 09:05:38;;;;;;;25.95;6.97;;;11.00;99.90;;;11.19;100.00;100603.84;5055324;28;20049;-78
2021/11/30 09:08:06;;;;;;;39.65;7.60;;;11.00;99.90;;;11.25;100.00;100603.78;5055540;28;20048;-77
2021/11/30 09:10:35;;;;;;;23.40;7.20;;;11.10;99.90;;;11.13;100.00;100611.84;5055230;28;20474;-77
2021/11/30 09:13:05;;;;;;;25.35;6.75;;;11.00;99.90;;;11.14;100.00;100599.50;5055254;28;20102;-78
2021/11/30 09:15:34;;;;;;;23.95;7.32;;;11.00;99.90;;;11.16;100.00;100600.34;5055259;28;20466;-78
2021/11/30 09:18:03;;;;;;;23.58;7.07;;;11.00;99.90;;;10.84;100.00;100555.69;5087692;28;20045;-78
2021/11/30 09:20:33;;;;;;;28.95;7.20;;;11.00;99.90;;;11.19;100.00;100603.84;5055132;28;20075;-78
2021/11/30 09:23:02;;;;;;;29.05;7.50;;;11.10;99.90;;;11.23;100.00;100616.16;5055677;28;20041;-78
2021/11/30 09:25:31;;;;;;;20.35;7.03;;;11.10;99.90;;;11.29;100.00;100613.44;5053981;28;20110;-78
2021/11/30 09:28:01;;;;;;;26.58;7.25;;;11.10;99.90;;;11.27;100.00;100616.97;5055185;28;20072;-77
2021/11/30 09:30:35;;;;;;;;;;;11.10;99.90;;;11.34;100.00;100619.53;5055586;28;20045;-77
2021/11/30 09:33:04;;;;;;;23.85;7.40;;;11.20;99.90;;;11.32;100.00;100605.47;5054862;28;19959;-77
2021/11/30 09:35:33;;;;;;;25.50;6.57;;;11.20;99.90;;;11.27;100.00;100615.22;5054836;28;20501;-78
2021/11/30 09:38:01;;;;;;;23.00;6.97;;;11.10;99.90;;;11.34;100.00;100613.41;5054689;28;20049;-77
2021/11/30 09:40:33;;;;;;;23.27;7.40;;;11.20;99.90;;;11.41;100.00;100618.59;5054689;28;20045;-77
2021/11/30 09:43:22;;;;;;;27.58;7.35;;;11.20;99.90;;;11.38;100.00;100621.25;5054184;28;20049;-77
2021/11/30 09:45:52;;;;;;;23.42;6.93;;;11.20;99.90;;;11.36;100.00;100623.03;5054916;28;20063;-76
2021/11/30 09:48:22;;;;;;;28.73;8.25;;;11.20;99.90;;;11.28;100.00;100601.09;5054649;28;20049;-77
2021/11/30 09:50:51;;;;;;;22.77;7.50;;;11.20;99.90;;;11.36;100.00;100619.56;5054478;28;20091;-77
2021/11/30 09:53:20;;;;;;;23.67;7.68;;;11.20;99.90;;;11.45;100.00;100622.06;5054516;28;20158;-77
2021/11/30 09:55:50;;;;;;;24.90;7.22;;;11.30;99.90;;;11.42;100.00;100628.28;5054469;28;20552;-77
2021/11/30 09:58:22;;;;;;;25.77;7.05;;;11.30;99.90;;;11.45;100.00;100625.63;5054574;28;20087;-77
2021/11/30 10:00:55;;;;;;;19.75;6.47;;;11.30;99.90;;;11.48;100.00;100620.25;5054621;28;20160;-77
2021/11/30 10:03:25;;;;;;;24.83;6.93;;;11.30;99.90;;;11.52;100.00;100632.56;5054242;28;20045;-77
2021/11/30 10:05:56;;;;;;;19.10;6.97;;;11.40;99.90;;;11.44;100.00;100615.03;5054209;28;20524;-77
2021/11/30 10:08:29;;;;;;;20.17;7.28;;;11.30;99.90;;;11.57;100.00;100622.81;5054291;28;20163;-77
2021/11/30 10:11:12;;;;;;;28.75;7.43;;;11.40;99.90;;;11.58;100.00;100628.97;5054503;28;20037;-77
2021/11/30 10:13:47;;;;;;;22.52;7.15;;;11.50;99.90;;;11.54;100.00;100628.13;5054136;28;20041;-77
2021/11/30 10:16:17;;;;;;;23.27;6.90;;;11.40;99.90;;;11.44;100.00;100626.50;5054434;28;20045;-78
2021/11/30 10:18:48;;;;;;;24.03;6.77;;;11.30;99.90;;;11.55;100.00;100635.22;5053990;28;20079;-77
2021/11/30 10:21:22;;;;;;;20.10;6.90;;;11.40;99.90;;;11.55;100.00;100629.03;5053939;28;20052;-77
2021/11/30 10:23:54;;;;;;;26.95;7.93;;;11.40;99.90;;;11.47;100.00;100636.19;5053800;28;20099;-77